sensor_id;sensor_type;location;lat;lon;timestamp;P1;durP1;ratioP1;P2;durP2;ratioP2
33006;SDS011;19361;51.598;7.650;2023-05-29T00:01:56;5.28;;;3.47;;
33006;SDS011;19361;51.598;7.650;2023-05-29T00:07:17;3.95;;;3.10;;
33006;SDS011;19361;51.598;7.650;2023-05-29T00:12:38;3.97;;;2.80;;
33006;SDS011;19361;51.598;7.650;2023-05-29T00:17:59;6.70;;;2.90;;
33006;SDS011;19361;51.598;7.650;2023-05-29T00:23:21;5.25;;;3.33;;
33006;SDS011;19361;51.598;7.650;2023-05-29T00:28:42;5.38;;;2.83;;
33006;SDS011;19361;51.598;7.650;2023-05-29T00:34:03;6.43;;;2.97;;
33006;SDS011;19361;51.598;7.650;2023-05-29T00:39:24;5.57;;;2.88;;
33006;SDS011;19361;51.598;7.650;2023-05-29T00:44:46;5.38;;;3.33;;
33006;SDS011;19361;51.598;7.650;2023-05-29T00:50:08;6.15;;;3.47;;
33006;SDS011;19361;51.598;7.650;2023-05-29T00:55:31;6.38;;;3.30;;
33006;SDS011;19361;51.598;7.650;2023-05-29T01:00:52;6.30;;;3.13;;
33006;SDS011;19361;51.598;7.650;2023-05-29T01:06:14;13.20;;;3.85;;
33006;SDS011;19361;51.598;7.650;2023-05-29T01:23:21;9.90;;;3.67;;
33006;SDS011;19361;51.598;7.650;2023-05-29T01:29:23;11.88;;;3.40;;
33006;SDS011;19361;51.598;7.650;2023-05-29T01:34:47;10.77;;;3.50;;
33006;SDS011;19361;51.598;7.650;2023-05-29T01:40:08;7.55;;;3.45;;
33006;SDS011;19361;51.598;7.650;2023-05-29T01:45:30;13.65;;;3.70;;
33006;SDS011;19361;51.598;7.650;2023-05-29T01:50:51;13.90;;;3.95;;
33006;SDS011;19361;51.598;7.650;2023-05-29T01:56:13;9.98;;;3.13;;
33006;SDS011;19361;51.598;7.650;2023-05-29T02:01:34;16.10;;;4.30;;
33006;SDS011;19361;51.598;7.650;2023-05-29T02:06:59;12.20;;;3.85;;
33006;SDS011;19361;51.598;7.650;2023-05-29T02:12:20;13.75;;;3.90;;
33006;SDS011;19361;51.598;7.650;2023-05-29T02:17:41;14.25;;;3.67;;
33006;SDS011;19361;51.598;7.650;2023-05-29T02:23:02;15.40;;;3.50;;
33006;SDS011;19361;51.598;7.650;2023-05-29T02:28:24;13.40;;;3.53;;
33006;SDS011;19361;51.598;7.650;2023-05-29T02:33:45;12.93;;;3.45;;
33006;SDS011;19361;51.598;7.650;2023-05-29T02:39:06;8.90;;;2.92;;
33006;SDS011;19361;51.598;7.650;2023-05-29T02:44:27;10.90;;;3.15;;
33006;SDS011;19361;51.598;7.650;2023-05-29T02:49:48;14.85;;;3.58;;
33006;SDS011;19361;51.598;7.650;2023-05-29T02:55:09;13.38;;;3.20;;
33006;SDS011;19361;51.598;7.650;2023-05-29T03:00:30;13.82;;;3.88;;
33006;SDS011;19361;51.598;7.650;2023-05-29T03:05:51;12.45;;;3.42;;
33006;SDS011;19361;51.598;7.650;2023-05-29T03:11:12;14.07;;;3.13;;
33006;SDS011;19361;51.598;7.650;2023-05-29T03:16:35;10.35;;;3.65;;
33006;SDS011;19361;51.598;7.650;2023-05-29T03:21:58;18.95;;;3.65;;
33006;SDS011;19361;51.598;7.650;2023-05-29T03:27:20;12.65;;;3.33;;
33006;SDS011;19361;51.598;7.650;2023-05-29T03:32:41;17.45;;;3.30;;
33006;SDS011;19361;51.598;7.650;2023-05-29T03:38:02;12.45;;;3.47;;
33006;SDS011;19361;51.598;7.650;2023-05-29T03:43:23;14.27;;;3.67;;
33006;SDS011;19361;51.598;7.650;2023-05-29T03:48:44;13.18;;;3.67;;
33006;SDS011;19361;51.598;7.650;2023-05-29T03:54:05;13.02;;;3.38;;
33006;SDS011;19361;51.598;7.650;2023-05-29T03:59:26;14.80;;;4.00;;
33006;SDS011;19361;51.598;7.650;2023-05-29T04:04:47;15.55;;;3.78;;
33006;SDS011;19361;51.598;7.650;2023-05-29T04:10:09;13.02;;;3.53;;
33006;SDS011;19361;51.598;7.650;2023-05-29T04:15:30;14.90;;;3.47;;
33006;SDS011;19361;51.598;7.650;2023-05-29T04:20:53;14.43;;;3.40;;
33006;SDS011;19361;51.598;7.650;2023-05-29T04:26:14;15.13;;;3.92;;
33006;SDS011;19361;51.598;7.650;2023-05-29T04:31:35;14.55;;;3.28;;
33006;SDS011;19361;51.598;7.650;2023-05-29T04:36:57;14.13;;;3.35;;
33006;SDS011;19361;51.598;7.650;2023-05-29T04:42:18;17.42;;;3.97;;
33006;SDS011;19361;51.598;7.650;2023-05-29T04:47:39;17.20;;;4.03;;
33006;SDS011;19361;51.598;7.650;2023-05-29T04:53:03;15.00;;;3.63;;
33006;SDS011;19361;51.598;7.650;2023-05-29T04:58:25;12.60;;;3.75;;
33006;SDS011;19361;51.598;7.650;2023-05-29T05:03:47;13.40;;;3.72;;
33006;SDS011;19361;51.598;7.650;2023-05-29T05:09:08;15.52;;;3.22;;
33006;SDS011;19361;51.598;7.650;2023-05-29T05:14:29;12.45;;;3.00;;
33006;SDS011;19361;51.598;7.650;2023-05-29T05:19:50;10.18;;;2.92;;
33006;SDS011;19361;51.598;7.650;2023-05-29T05:25:13;12.45;;;3.63;;
33006;SDS011;19361;51.598;7.650;2023-05-29T05:30:35;10.73;;;3.22;;
33006;SDS011;19361;51.598;7.650;2023-05-29T05:35:56;9.55;;;3.10;;
33006;SDS011;19361;51.598;7.650;2023-05-29T05:41:17;14.45;;;3.83;;
33006;SDS011;19361;51.598;7.650;2023-05-29T05:46:38;12.52;;;3.65;;
33006;SDS011;19361;51.598;7.650;2023-05-29T05:51:59;13.10;;;3.38;;
33006;SDS011;19361;51.598;7.650;2023-05-29T05:57:20;14.60;;;3.88;;
33006;SDS011;19361;51.598;7.650;2023-05-29T06:02:41;13.13;;;3.25;;
33006;SDS011;19361;51.598;7.650;2023-05-29T06:08:03;11.02;;;3.60;;
33006;SDS011;19361;51.598;7.650;2023-05-29T06:13:24;12.02;;;3.53;;
33006;SDS011;19361;51.598;7.650;2023-05-29T06:18:45;15.23;;;4.10;;
33006;SDS011;19361;51.598;7.650;2023-05-29T06:24:06;14.30;;;4.15;;
33006;SDS011;19361;51.598;7.650;2023-05-29T06:29:27;14.90;;;4.00;;
33006;SDS011;19361;51.598;7.650;2023-05-29T06:34:49;17.05;;;4.28;;
33006;SDS011;19361;51.598;7.650;2023-05-29T06:40:10;14.93;;;4.22;;
33006;SDS011;19361;51.598;7.650;2023-05-29T06:45:38;13.53;;;3.67;;
33006;SDS011;19361;51.598;7.650;2023-05-29T06:50:59;9.00;;;3.70;;
33006;SDS011;19361;51.598;7.650;2023-05-29T06:56:21;11.73;;;4.07;;
33006;SDS011;19361;51.598;7.650;2023-05-29T07:01:42;10.93;;;4.07;;
33006;SDS011;19361;51.598;7.650;2023-05-29T07:07:03;17.08;;;4.90;;
33006;SDS011;19361;51.598;7.650;2023-05-29T07:12:26;14.30;;;4.97;;
33006;SDS011;19361;51.598;7.650;2023-05-29T07:17:47;13.85;;;4.80;;
33006;SDS011;19361;51.598;7.650;2023-05-29T07:23:08;16.52;;;5.82;;
33006;SDS011;19361;51.598;7.650;2023-05-29T07:28:29;19.17;;;5.45;;
33006;SDS011;19361;51.598;7.650;2023-05-29T07:33:50;17.20;;;5.32;;
33006;SDS011;19361;51.598;7.650;2023-05-29T07:39:11;14.30;;;4.65;;
33006;SDS011;19361;51.598;7.650;2023-05-29T07:44:32;14.13;;;4.65;;
33006;SDS011;19361;51.598;7.650;2023-05-29T07:49:53;17.63;;;4.40;;
33006;SDS011;19361;51.598;7.650;2023-05-29T07:55:14;15.18;;;4.60;;
33006;SDS011;19361;51.598;7.650;2023-05-29T08:00:36;11.18;;;3.72;;
33006;SDS011;19361;51.598;7.650;2023-05-29T08:05:58;15.82;;;4.18;;
33006;SDS011;19361;51.598;7.650;2023-05-29T08:11:19;12.43;;;3.83;;
33006;SDS011;19361;51.598;7.650;2023-05-29T08:16:42;13.43;;;4.05;;
33006;SDS011;19361;51.598;7.650;2023-05-29T08:22:03;15.38;;;3.75;;
33006;SDS011;19361;51.598;7.650;2023-05-29T08:27:24;13.75;;;4.28;;
33006;SDS011;19361;51.598;7.650;2023-05-29T08:32:45;9.98;;;3.00;;
33006;SDS011;19361;51.598;7.650;2023-05-29T08:38:07;13.48;;;3.70;;
33006;SDS011;19361;51.598;7.650;2023-05-29T08:43:31;11.20;;;3.20;;
33006;SDS011;19361;51.598;7.650;2023-05-29T08:48:52;10.65;;;2.97;;
33006;SDS011;19361;51.598;7.650;2023-05-29T08:54:18;10.25;;;3.25;;
33006;SDS011;19361;51.598;7.650;2023-05-29T08:59:42;17.00;;;3.40;;
33006;SDS011;19361;51.598;7.650;2023-05-29T09:05:04;14.95;;;3.80;;
33006;SDS011;19361;51.598;7.650;2023-05-29T09:10:26;11.98;;;3.70;;
33006;SDS011;19361;51.598;7.650;2023-05-29T09:15:48;10.73;;;3.40;;
33006;SDS011;19361;51.598;7.650;2023-05-29T09:21:09;10.85;;;3.13;;
33006;SDS011;19361;51.598;7.650;2023-05-29T09:26:30;10.80;;;3.20;;
33006;SDS011;19361;51.598;7.650;2023-05-29T09:31:52;12.68;;;3.35;;
33006;SDS011;19361;51.598;7.650;2023-05-29T09:37:13;13.55;;;3.30;;
33006;SDS011;19361;51.598;7.650;2023-05-29T09:42:34;10.38;;;2.97;;
33006;SDS011;19361;51.598;7.650;2023-05-29T09:47:59;11.80;;;2.90;;
33006;SDS011;19361;51.598;7.650;2023-05-29T09:53:23;9.77;;;3.20;;
33006;SDS011;19361;51.598;7.650;2023-05-29T09:58:45;12.30;;;3.50;;
33006;SDS011;19361;51.598;7.650;2023-05-29T10:04:08;11.90;;;3.00;;
33006;SDS011;19361;51.598;7.650;2023-05-29T10:09:30;8.27;;;3.30;;
33006;SDS011;19361;51.598;7.650;2023-05-29T10:14:59;11.35;;;3.17;;
33006;SDS011;19361;51.598;7.650;2023-05-29T10:20:22;13.30;;;3.72;;
33006;SDS011;19361;51.598;7.650;2023-05-29T10:25:44;8.20;;;3.15;;
33006;SDS011;19361;51.598;7.650;2023-05-29T10:31:14;12.30;;;3.38;;
33006;SDS011;19361;51.598;7.650;2023-05-29T10:36:47;11.38;;;2.95;;
33006;SDS011;19361;51.598;7.650;2023-05-29T10:42:54;10.88;;;3.20;;
33006;SDS011;19361;51.598;7.650;2023-05-29T10:53:34;10.10;;;3.10;;
33006;SDS011;19361;51.598;7.650;2023-05-29T10:59:00;10.23;;;3.47;;
33006;SDS011;19361;51.598;7.650;2023-05-29T11:09:47;13.65;;;3.67;;
33006;SDS011;19361;51.598;7.650;2023-05-29T11:15:10;9.60;;;3.00;;
33006;SDS011;19361;51.598;7.650;2023-05-29T11:20:36;7.10;;;2.85;;
33006;SDS011;19361;51.598;7.650;2023-05-29T11:26:04;8.77;;;3.20;;
33006;SDS011;19361;51.598;7.650;2023-05-29T11:31:26;11.38;;;3.53;;
33006;SDS011;19361;51.598;7.650;2023-05-29T11:36:53;9.20;;;3.30;;
33006;SDS011;19361;51.598;7.650;2023-05-29T11:42:15;15.80;;;3.22;;
33006;SDS011;19361;51.598;7.650;2023-05-29T11:47:52;10.10;;;3.22;;
33006;SDS011;19361;51.598;7.650;2023-05-29T11:53:17;10.27;;;3.28;;
33006;SDS011;19361;51.598;7.650;2023-05-29T11:58:39;12.45;;;3.35;;
33006;SDS011;19361;51.598;7.650;2023-05-29T12:04:01;13.13;;;3.70;;
33006;SDS011;19361;51.598;7.650;2023-05-29T12:09:34;9.30;;;3.17;;
33006;SDS011;19361;51.598;7.650;2023-05-29T12:14:55;9.15;;;3.78;;
33006;SDS011;19361;51.598;7.650;2023-05-29T12:20:17;9.25;;;2.83;;
33006;SDS011;19361;51.598;7.650;2023-05-29T12:25:39;7.93;;;2.92;;
33006;SDS011;19361;51.598;7.650;2023-05-29T12:31:00;6.63;;;2.65;;
33006;SDS011;19361;51.598;7.650;2023-05-29T12:36:21;9.55;;;3.33;;
33006;SDS011;19361;51.598;7.650;2023-05-29T12:41:46;10.65;;;3.35;;
33006;SDS011;19361;51.598;7.650;2023-05-29T12:47:08;14.82;;;3.22;;
33006;SDS011;19361;51.598;7.650;2023-05-29T12:52:29;7.78;;;2.70;;
33006;SDS011;19361;51.598;7.650;2023-05-29T12:57:50;10.27;;;3.00;;
33006;SDS011;19361;51.598;7.650;2023-05-29T13:03:12;6.47;;;2.78;;
33006;SDS011;19361;51.598;7.650;2023-05-29T13:08:33;8.40;;;3.97;;
33006;SDS011;19361;51.598;7.650;2023-05-29T13:13:54;7.45;;;3.00;;
33006;SDS011;19361;51.598;7.650;2023-05-29T13:19:15;7.60;;;3.08;;
33006;SDS011;19361;51.598;7.650;2023-05-29T13:24:37;6.57;;;2.97;;
33006;SDS011;19361;51.598;7.650;2023-05-29T13:29:58;11.57;;;3.67;;
33006;SDS011;19361;51.598;7.650;2023-05-29T13:35:19;9.90;;;3.00;;
33006;SDS011;19361;51.598;7.650;2023-05-29T13:40:41;5.10;;;2.47;;
33006;SDS011;19361;51.598;7.650;2023-05-29T13:46:02;8.98;;;2.88;;
33006;SDS011;19361;51.598;7.650;2023-05-29T13:51:23;9.18;;;3.53;;
33006;SDS011;19361;51.598;7.650;2023-05-29T13:56:44;9.43;;;3.47;;
33006;SDS011;19361;51.598;7.650;2023-05-29T14:02:05;6.28;;;3.33;;
33006;SDS011;19361;51.598;7.650;2023-05-29T14:07:28;8.68;;;3.33;;
33006;SDS011;19361;51.598;7.650;2023-05-29T14:12:49;8.63;;;2.95;;
33006;SDS011;19361;51.598;7.650;2023-05-29T14:18:11;8.20;;;3.03;;
33006;SDS011;19361;51.598;7.650;2023-05-29T14:23:32;8.77;;;3.00;;
33006;SDS011;19361;51.598;7.650;2023-05-29T14:28:54;8.65;;;2.83;;
33006;SDS011;19361;51.598;7.650;2023-05-29T14:34:15;7.47;;;2.95;;
33006;SDS011;19361;51.598;7.650;2023-05-29T14:39:37;9.98;;;3.65;;
33006;SDS011;19361;51.598;7.650;2023-05-29T14:44:58;7.22;;;2.83;;
33006;SDS011;19361;51.598;7.650;2023-05-29T14:50:19;9.00;;;3.55;;
33006;SDS011;19361;51.598;7.650;2023-05-29T14:55:41;10.52;;;3.10;;
33006;SDS011;19361;51.598;7.650;2023-05-29T15:01:02;7.20;;;3.30;;
33006;SDS011;19361;51.598;7.650;2023-05-29T15:06:23;7.32;;;3.67;;
33006;SDS011;19361;51.598;7.650;2023-05-29T15:11:44;6.80;;;3.05;;
33006;SDS011;19361;51.598;7.650;2023-05-29T15:17:05;7.25;;;3.22;;
33006;SDS011;19361;51.598;7.650;2023-05-29T15:22:26;7.22;;;3.08;;
33006;SDS011;19361;51.598;7.650;2023-05-29T15:27:47;12.32;;;3.17;;
33006;SDS011;19361;51.598;7.650;2023-05-29T15:33:08;6.30;;;3.22;;
33006;SDS011;19361;51.598;7.650;2023-05-29T15:38:31;4.88;;;2.83;;
33006;SDS011;19361;51.598;7.650;2023-05-29T15:43:53;7.55;;;2.97;;
33006;SDS011;19361;51.598;7.650;2023-05-29T15:49:14;7.07;;;2.95;;
33006;SDS011;19361;51.598;7.650;2023-05-29T15:54:35;9.63;;;2.80;;
33006;SDS011;19361;51.598;7.650;2023-05-29T15:59:56;6.20;;;2.72;;
33006;SDS011;19361;51.598;7.650;2023-05-29T16:05:17;9.77;;;3.13;;
33006;SDS011;19361;51.598;7.650;2023-05-29T16:10:38;7.30;;;3.25;;
33006;SDS011;19361;51.598;7.650;2023-05-29T16:16:03;10.48;;;3.20;;
33006;SDS011;19361;51.598;7.650;2023-05-29T16:21:24;9.57;;;3.10;;
33006;SDS011;19361;51.598;7.650;2023-05-29T16:26:45;9.50;;;3.50;;
33006;SDS011;19361;51.598;7.650;2023-05-29T16:32:06;12.73;;;3.50;;
33006;SDS011;19361;51.598;7.650;2023-05-29T16:37:28;8.52;;;3.20;;
33006;SDS011;19361;51.598;7.650;2023-05-29T16:42:49;9.52;;;3.20;;
33006;SDS011;19361;51.598;7.650;2023-05-29T16:48:10;9.40;;;2.95;;
33006;SDS011;19361;51.598;7.650;2023-05-29T16:53:31;7.97;;;3.03;;
33006;SDS011;19361;51.598;7.650;2023-05-29T16:58:52;9.45;;;3.42;;
33006;SDS011;19361;51.598;7.650;2023-05-29T17:04:13;9.73;;;3.20;;
33006;SDS011;19361;51.598;7.650;2023-05-29T17:09:35;8.77;;;3.47;;
33006;SDS011;19361;51.598;7.650;2023-05-29T17:14:56;8.65;;;2.95;;
33006;SDS011;19361;51.598;7.650;2023-05-29T17:20:17;13.63;;;3.00;;
33006;SDS011;19361;51.598;7.650;2023-05-29T17:25:38;6.75;;;2.72;;
33006;SDS011;19361;51.598;7.650;2023-05-29T17:30:59;6.22;;;2.75;;
33006;SDS011;19361;51.598;7.650;2023-05-29T17:36:21;6.82;;;2.70;;
33006;SDS011;19361;51.598;7.650;2023-05-29T17:41:42;8.60;;;3.35;;
33006;SDS011;19361;51.598;7.650;2023-05-29T17:47:03;6.05;;;2.85;;
33006;SDS011;19361;51.598;7.650;2023-05-29T17:52:25;8.65;;;2.92;;
33006;SDS011;19361;51.598;7.650;2023-05-29T17:57:46;11.30;;;2.97;;
33006;SDS011;19361;51.598;7.650;2023-05-29T18:03:07;7.80;;;3.00;;
33006;SDS011;19361;51.598;7.650;2023-05-29T18:08:28;11.15;;;3.03;;
33006;SDS011;19361;51.598;7.650;2023-05-29T18:13:50;7.30;;;2.90;;
33006;SDS011;19361;51.598;7.650;2023-05-29T18:19:11;7.78;;;3.22;;
33006;SDS011;19361;51.598;7.650;2023-05-29T18:24:34;9.88;;;3.53;;
33006;SDS011;19361;51.598;7.650;2023-05-29T18:29:56;8.60;;;2.92;;
33006;SDS011;19361;51.598;7.650;2023-05-29T18:35:19;10.25;;;2.80;;
33006;SDS011;19361;51.598;7.650;2023-05-29T18:40:40;10.02;;;3.20;;
33006;SDS011;19361;51.598;7.650;2023-05-29T18:46:02;9.07;;;3.33;;
33006;SDS011;19361;51.598;7.650;2023-05-29T18:51:24;5.55;;;2.55;;
33006;SDS011;19361;51.598;7.650;2023-05-29T18:56:46;9.27;;;2.88;;
33006;SDS011;19361;51.598;7.650;2023-05-29T19:02:07;11.57;;;3.45;;
33006;SDS011;19361;51.598;7.650;2023-05-29T19:07:28;10.18;;;3.22;;
33006;SDS011;19361;51.598;7.650;2023-05-29T19:12:49;11.93;;;3.53;;
33006;SDS011;19361;51.598;7.650;2023-05-29T19:18:10;12.80;;;3.15;;
33006;SDS011;19361;51.598;7.650;2023-05-29T19:23:31;10.65;;;3.15;;
33006;SDS011;19361;51.598;7.650;2023-05-29T19:28:52;11.25;;;3.40;;
33006;SDS011;19361;51.598;7.650;2023-05-29T19:34:13;10.15;;;3.20;;
33006;SDS011;19361;51.598;7.650;2023-05-29T19:39:35;11.63;;;2.72;;
33006;SDS011;19361;51.598;7.650;2023-05-29T19:44:56;11.18;;;2.92;;
33006;SDS011;19361;51.598;7.650;2023-05-29T19:50:17;10.35;;;3.00;;
33006;SDS011;19361;51.598;7.650;2023-05-29T19:55:39;9.95;;;3.13;;
33006;SDS011;19361;51.598;7.650;2023-05-29T20:01:00;8.18;;;2.88;;
33006;SDS011;19361;51.598;7.650;2023-05-29T20:06:21;13.60;;;3.10;;
33006;SDS011;19361;51.598;7.650;2023-05-29T20:11:43;8.90;;;3.08;;
33006;SDS011;19361;51.598;7.650;2023-05-29T20:17:05;9.82;;;3.10;;
33006;SDS011;19361;51.598;7.650;2023-05-29T20:22:26;8.10;;;2.55;;
33006;SDS011;19361;51.598;7.650;2023-05-29T20:27:47;9.18;;;2.50;;
33006;SDS011;19361;51.598;7.650;2023-05-29T20:33:08;6.30;;;2.50;;
33006;SDS011;19361;51.598;7.650;2023-05-29T20:38:29;9.02;;;2.20;;
33006;SDS011;19361;51.598;7.650;2023-05-29T20:43:51;6.38;;;2.28;;
33006;SDS011;19361;51.598;7.650;2023-05-29T20:49:13;6.13;;;2.42;;
33006;SDS011;19361;51.598;7.650;2023-05-29T20:54:35;9.98;;;2.25;;
33006;SDS011;19361;51.598;7.650;2023-05-29T20:59:56;10.23;;;2.40;;
33006;SDS011;19361;51.598;7.650;2023-05-29T21:05:17;6.45;;;2.42;;
33006;SDS011;19361;51.598;7.650;2023-05-29T21:10:38;8.82;;;2.78;;
33006;SDS011;19361;51.598;7.650;2023-05-29T21:15:59;6.88;;;2.13;;
33006;SDS011;19361;51.598;7.650;2023-05-29T21:21:21;7.88;;;2.42;;
33006;SDS011;19361;51.598;7.650;2023-05-29T21:26:42;9.93;;;2.58;;
33006;SDS011;19361;51.598;7.650;2023-05-29T21:32:03;7.85;;;2.40;;
33006;SDS011;19361;51.598;7.650;2023-05-29T21:37:24;6.90;;;2.20;;
33006;SDS011;19361;51.598;7.650;2023-05-29T21:42:46;5.82;;;2.10;;
33006;SDS011;19361;51.598;7.650;2023-05-29T21:48:08;6.40;;;2.20;;
33006;SDS011;19361;51.598;7.650;2023-05-29T21:53:29;7.05;;;2.10;;
33006;SDS011;19361;51.598;7.650;2023-05-29T21:58:50;6.85;;;1.70;;
33006;SDS011;19361;51.598;7.650;2023-05-29T22:04:11;8.35;;;2.58;;
33006;SDS011;19361;51.598;7.650;2023-05-29T22:09:32;7.22;;;2.00;;
33006;SDS011;19361;51.598;7.650;2023-05-29T22:14:53;8.18;;;2.30;;
33006;SDS011;19361;51.598;7.650;2023-05-29T22:20:14;7.50;;;2.63;;
33006;SDS011;19361;51.598;7.650;2023-05-29T22:25:36;5.63;;;2.00;;
33006;SDS011;19361;51.598;7.650;2023-05-29T22:30:57;7.35;;;2.50;;
33006;SDS011;19361;51.598;7.650;2023-05-29T22:36:18;9.85;;;2.63;;
33006;SDS011;19361;51.598;7.650;2023-05-29T22:41:41;7.30;;;3.13;;
33006;SDS011;19361;51.598;7.650;2023-05-29T22:47:02;7.32;;;2.40;;
33006;SDS011;19361;51.598;7.650;2023-05-29T22:52:24;7.50;;;2.70;;
33006;SDS011;19361;51.598;7.650;2023-05-29T22:57:45;7.22;;;2.30;;
33006;SDS011;19361;51.598;7.650;2023-05-29T23:03:06;8.98;;;2.25;;
33006;SDS011;19361;51.598;7.650;2023-05-29T23:08:28;12.23;;;2.45;;
33006;SDS011;19361;51.598;7.650;2023-05-29T23:13:49;11.80;;;2.97;;
33006;SDS011;19361;51.598;7.650;2023-05-29T23:19:10;8.98;;;2.58;;
33006;SDS011;19361;51.598;7.650;2023-05-29T23:24:32;8.77;;;2.20;;
33006;SDS011;19361;51.598;7.650;2023-05-29T23:29:55;8.07;;;2.40;;
33006;SDS011;19361;51.598;7.650;2023-05-29T23:35:16;11.82;;;2.97;;
33006;SDS011;19361;51.598;7.650;2023-05-29T23:40:38;7.85;;;2.17;;
33006;SDS011;19361;51.598;7.650;2023-05-29T23:45:59;11.98;;;3.63;;
33006;SDS011;19361;51.598;7.650;2023-05-29T23:51:21;10.57;;;2.20;;
33006;SDS011;19361;51.598;7.650;2023-05-29T23:56:42;10.63;;;3.13;;
